Time;durP1;ratioP1;P1;durP2;ratioP2;P2;SDS_P1;SDS_P2;PMS_P1;PMS_P2;Temp;Humidity;BMP_temperature;BMP_pressure;BME280_temperature;BME280_humidity;BME280_pressure;Samples;Min_cycle;Max_cycle;Signal;HPM_P1;HPM_P2
2022/06/18 00:02:18;;;;;;;8.08;4.90;;;;;;;15.16;70.10;101229.73;1764165;80;25724;-81
2022/06/18 00:04:46;;;;;;;10.78;5.30;;;;;;;15.09;70.36;101228.05;1754716;80;25835;-82
2022/06/18 00:07:18;;;;;;;12.47;5.70;;;;;;;15.08;70.64;101231.27;1735910;80;26023;-83
2022/06/18 00:09:49;;;;;;;7.70;5.37;;;;;;;15.06;70.69;101226.59;1766027;80;25746;-82
2022/06/18 00:15:21;;;;;;;11.68;5.92;;;;;;;14.99;70.44;101225.72;1751059;80;25798;-82
2022/06/18 00:17:49;;;;;;;10.20;6.90;;;;;;;14.94;70.53;101231.41;1777498;79;25798;-82
2022/06/18 00:20:18;;;;;;;10.28;5.65;;;;;;;14.89;70.58;101229.30;1740274;80;26510;-81
2022/06/18 00:22:49;;;;;;;10.90;6.25;;;;;;;14.87;70.60;101233.23;1755112;80;25298;-82
2022/06/18 00:25:27;;;;;;;10.60;6.05;;;;;;;14.83;70.59;101230.61;1769064;79;27440;-82
2022/06/18 00:27:55;;;;;;;10.30;6.30;;;;;;;14.78;70.64;101231.75;1755683;80;25971;-83
2022/06/18 00:30:25;;;;;;;10.70;6.90;;;;;;;14.75;70.68;101227.58;1758029;80;25308;-83
2022/06/18 00:32:52;;;;;;;13.28;6.95;;;;;;;14.74;70.88;101232.64;1758829;79;25753;-82
2022/06/18 00:35:19;;;;;;;12.90;7.60;;;;;;;14.72;70.83;101228.47;1756049;80;25782;-81
2022/06/18 00:37:48;;;;;;;12.95;7.60;;;;;;;14.73;71.02;101225.59;1786228;79;27932;-82
2022/06/18 00:40:22;;;;;;;11.93;8.03;;;;;;;14.73;71.36;101230.98;1751526;80;25723;-82
2022/06/18 00:42:50;;;;;;;16.10;9.33;;;;;;;14.72;71.43;101223.91;1750959;80;25783;-83
2022/06/18 00:45:25;;;;;;;13.95;8.98;;;;;;;14.72;71.68;101224.42;1775562;79;25773;-82
2022/06/18 00:48:01;;;;;;;14.07;8.55;;;;;;;14.68;71.68;101226.19;1767391;79;25751;-82
2022/06/18 00:50:38;;;;;;;15.18;8.43;;;;;;;14.68;72.06;101219.95;1789054;79;27517;-82
2022/06/18 00:53:20;;;;;;;12.80;8.08;;;;;;;14.67;72.16;101223.16;1745145;81;26684;-82
2022/06/18 00:56:08;;;;;;;11.63;8.28;;;;;;;14.63;72.36;101225.94;1766143;80;25914;-82
2022/06/18 00:58:46;;;;;;;13.83;8.58;;;;;;;14.59;72.42;101214.39;1755582;80;25821;-83
2022/06/18 01:01:26;;;;;;;13.60;8.93;;;;;;;14.58;72.54;101206.00;1766385;79;26431;-82
2022/06/18 01:03:52;;;;;;;11.93;7.62;;;;;;;14.56;72.27;101214.80;1732387;80;27615;-82
2022/06/18 01:06:24;;;;;;;13.25;8.20;;;;;;;14.53;72.30;101212.49;1773059;79;26631;-82
2022/06/18 01:09:01;;;;;;;12.25;8.48;;;;;;;14.50;72.28;101212.37;1760482;80;25882;-82
2022/06/18 01:11:32;;;;;;;12.78;7.65;;;;;;;14.49;72.31;101208.53;1737629;81;25981;-82
2022/06/18 01:14:04;;;;;;;11.93;7.70;;;;;;;14.46;72.30;101208.91;1747330;80;25904;-83
2022/06/18 01:16:30;;;;;;;12.68;8.25;;;;;;;14.41;72.26;101212.19;1728918;80;27468;-83
2022/06/18 01:18:57;;;;;;;11.15;7.62;;;;;;;14.37;72.45;101212.27;1744850;80;25343;-82
2022/06/18 01:21:38;;;;;;;11.35;7.78;;;;;;;14.33;72.59;101211.00;1795676;79;25917;-83
2022/06/18 01:24:17;;;;;;;11.85;7.70;;;;;;;14.30;72.62;101210.06;1762185;79;25784;-82
2022/06/18 01:26:50;;;;;;;12.70;9.08;;;;;;;14.28;72.80;101208.55;1753652;79;26321;-82
2022/06/18 01:29:17;;;;;;;11.30;7.30;;;;;;;14.25;72.69;101200.84;1715387;80;27445;-82
2022/06/18 01:31:47;;;;;;;12.73;8.48;;;;;;;14.21;72.53;101197.72;1731542;81;25662;-83
2022/06/18 01:34:15;;;;;;;9.25;7.58;;;;;;;14.16;72.41;101190.73;1776202;79;25828;-83
2022/06/18 01:36:44;;;;;;;11.10;7.95;;;;;;;14.14;72.46;101191.44;1780739;79;26766;-82
2022/06/18 01:39:17;;;;;;;10.18;8.15;;;;;;;14.12;72.29;101188.11;1757641;80;25739;-82
2022/06/18 01:41:51;;;;;;;13.30;8.55;;;;;;;14.06;72.39;101184.86;1750521;80;28459;-82
2022/06/18 01:44:46;;;;;;;11.75;7.83;;;;;;;14.04;72.82;101187.42;1775429;79;25510;-82
2022/06/18 01:47:28;;;;;;;14.30;8.40;;;;;;;14.02;72.95;101180.89;1769781;80;25776;-82
2022/06/18 01:49:59;;;;;;;;;;;;;;;13.98;72.73;101178.78;1758065;80;26589;-82
2022/06/18 01:52:32;;;;;;;12.28;8.20;;;;;;;13.94;73.07;101181.84;1743732;80;26046;-82
2022/06/18 01:55:08;;;;;;;15.05;9.48;;;;;;;13.90;72.83;101174.34;1753272;80;27585;-83
2022/06/18 01:57:40;;;;;;;11.33;8.13;;;;;;;13.80;72.71;101176.55;1777155;79;26621;-82
2022/06/18 02:00:14;;;;;;;13.35;7.53;;;;;;;13.80;73.04;101167.12;1758709;80;26424;-82
2022/06/18 02:02:45;;;;;;;14.15;8.13;;;;;;;13.77;73.25;101160.80;1756406;80;26774;-83
2022/06/18 02:05:15;;;;;;;9.48;7.42;;;;;;;13.72;73.36;101161.38;1744750;81;26602;-83
2022/06/18 02:07:43;;;;;;;10.70;7.30;;;;;;;13.70;73.35;101160.73;1744050;80;27470;-83
2022/06/18 02:10:21;;;;;;;12.28;7.55;;;;;;;13.65;73.13;101160.98;1750377;80;25314;-83
2022/06/18 02:12:49;;;;;;;12.78;8.40;;;;;;;13.63;73.33;101156.30;1761659;80;25808;-82
2022/06/18 02:15:26;;;;;;;10.23;7.95;;;;;;;13.63;73.38;101157.64;1759747;80;25890;-82
2022/06/18 02:17:58;;;;;;;10.18;7.20;;;;;;;13.61;73.28;101151.63;1759801;80;26540;-83
2022/06/18 02:20:28;;;;;;;13.50;9.05;;;;;;;13.61;73.48;101159.20;1775255;79;28276;-83
2022/06/18 02:22:57;;;;;;;12.82;8.45;;;;;;;13.62;73.53;101154.66;1750406;80;25363;-83
2022/06/18 02:25:28;;;;;;;13.48;7.87;;;;;;;13.63;73.64;101154.95;1759564;80;26555;-83
2022/06/18 02:27:59;;;;;;;17.05;8.93;;;;;;;13.66;73.83;101155.42;1749387;80;26360;-83
2022/06/18 02:30:30;;;;;;;19.15;9.08;;;;;;;13.68;73.86;101152.02;1759691;80;25988;-82
2022/06/18 02:33:23;;;;;;;10.98;8.03;;;;;;;13.66;74.06;101151.38;1777660;79;27434;-82
2022/06/18 02:35:50;;;;;;;12.82;8.65;;;;;;;13.65;74.43;101152.39;1763966;80;26467;-82
2022/06/18 02:38:21;;;;;;;12.25;7.55;;;;;;;13.63;74.39;101142.84;1745541;79;25796;-82
2022/06/18 02:40:47;;;;;;;12.63;7.60;;;;;;;13.63;74.36;101146.88;1759059;80;25855;-82
2022/06/18 02:43:16;;;;;;;16.55;7.75;;;;;;;13.61;74.43;101136.31;1751054;80;25809;-82
2022/06/18 02:45:45;;;;;;;9.73;7.78;;;;;;;13.65;74.56;101140.28;1773722;80;26875;-82
2022/06/18 02:48:11;;;;;;;13.00;8.60;;;;;;;13.67;74.64;101138.23;1738244;80;26327;-82
2022/06/18 02:50:41;;;;;;;11.33;7.62;;;;;;;13.70;74.65;101137.85;1767525;80;25922;-83
2022/06/18 02:53:10;;;;;;;13.75;8.85;;;;;;;13.76;74.87;101137.58;1766099;80;25802;-82
2022/06/18 02:55:51;;;;;;;14.53;9.03;;;;;;;13.82;75.12;101144.36;1759191;80;26025;-82
2022/06/18 02:58:26;;;;;;;14.43;7.83;;;;;;;13.88;75.17;101140.05;1764616;80;27476;-82
2022/06/18 03:00:57;;;;;;;14.65;8.28;;;;;;;13.94;75.51;101146.03;1774603;80;25945;-82
2022/06/18 03:03:28;;;;;;;10.75;8.38;;;;;;;14.00;75.64;101143.05;1755692;80;25868;-82
2022/06/18 03:05:55;;;;;;;12.45;8.08;;;;;;;14.06;75.94;101153.88;1752409;80;25744;-82
2022/06/18 03:08:25;;;;;;;9.98;7.75;;;;;;;14.11;75.71;101155.98;1762723;80;25895;-82
2022/06/18 03:13:39;;;;;;;13.60;8.95;;;;;;;14.22;76.04;101164.34;1752479;80;25926;-82
2022/06/18 03:16:10;;;;;;;11.15;7.95;;;;;;;14.30;76.17;101162.91;1781507;79;26496;-82
2022/06/18 03:18:40;;;;;;;12.47;8.65;;;;;;;14.35;76.14;101158.27;1785063;79;25925;-82
2022/06/18 03:21:29;;;;;;;10.08;8.18;;;;;;;14.42;76.22;101155.08;1781116;79;26602;-82
2022/06/18 03:23:55;;;;;;;9.90;7.72;;;;;;;14.47;76.34;101157.52;1777866;79;27477;-82
2022/06/18 03:26:22;;;;;;;10.23;9.00;;;;;;;14.53;76.45;101161.27;1761995;80;25771;-82
2022/06/18 03:28:53;;;;;;;10.90;7.90;;;;;;;14.59;76.39;101154.56;1762105;80;25737;-81
2022/06/18 03:31:20;;;;;;;12.55;8.30;;;;;;;14.64;76.52;101160.20;1772360;80;26502;-82
2022/06/18 03:33:47;;;;;;;10.75;7.60;;;;;;;14.69;76.73;101154.22;1760670;80;25930;-81
2022/06/18 03:36:20;;;;;;;10.25;7.75;;;;;;;14.76;76.75;101148.31;1787187;79;27430;-82
2022/06/18 03:38:48;;;;;;;11.12;8.25;;;;;;;14.81;76.98;101152.61;1774715;79;25878;-82
2022/06/18 03:41:20;;;;;;;11.48;8.95;;;;;;;14.87;76.89;101157.19;1765892;80;25789;-83
2022/06/18 03:43:47;;;;;;;12.58;8.20;;;;;;;14.95;77.03;101148.11;1757543;80;26688;-82
2022/06/18 03:46:17;;;;;;;11.50;8.25;;;;;;;15.02;77.10;101151.64;1784187;79;25295;-82
2022/06/18 03:48:58;;;;;;;12.50;8.10;;;;;;;15.07;77.28;101152.72;1777950;79;27577;-82
2022/06/18 03:51:27;;;;;;;12.98;8.48;;;;;;;15.12;77.17;101146.72;1780303;79;25876;-82
2022/06/18 03:53:55;;;;;;;9.63;7.65;;;;;;;15.18;77.48;101152.10;1755737;80;25335;-82
2022/06/18 03:56:27;;;;;;;10.72;7.95;;;;;;;15.25;77.36;101152.13;1759356;80;26512;-82
2022/06/18 03:58:55;;;;;;;11.30;8.25;;;;;;;15.33;77.35;101146.56;1756894;80;25932;-82
2022/06/18 04:01:26;;;;;;;10.32;7.97;;;;;;;15.40;77.80;101146.03;1784065;79;27438;-82
2022/06/18 04:03:54;;;;;;;14.47;7.90;;;;;;;15.49;78.19;101144.01;1776124;79;25336;-81
2022/06/18 04:06:23;;;;;;;11.15;8.20;;;;;;;15.56;78.12;101149.75;1734185;81;25906;-82
2022/06/18 04:08:50;;;;;;;13.48;6.92;;;;;;;15.63;78.27;101143.81;1759432;80;25858;-82
2022/06/18 04:11:22;;;;;;;10.40;7.75;;;;;;;15.73;78.54;101139.37;1756906;80;25835;-83
2022/06/18 04:13:49;;;;;;;12.13;6.87;;;;;;;15.80;78.74;101146.96;1756979;79;27409;-82
2022/06/18 04:16:33;;;;;;;9.25;6.60;;;;;;;15.83;78.58;101146.53;1752976;80;25946;-82
2022/06/18 04:19:01;;;;;;;11.38;7.47;;;;;;;15.90;78.62;101140.11;1788748;79;25814;-83
2022/06/18 04:21:27;;;;;;;8.60;6.87;;;;;;;15.99;78.65;101148.32;1770715;79;26561;-82
2022/06/18 04:23:54;;;;;;;17.10;7.25;;;;;;;16.07;78.69;101152.16;1776083;79;26475;-82
2022/06/18 04:26:22;;;;;;;9.70;6.72;;;;;;;16.13;78.81;101147.26;1775222;79;27617;-83
2022/06/18 04:28:48;;;;;;;8.88;6.75;;;;;;;16.19;78.65;101142.36;1758295;80;26416;-82
2022/06/18 04:31:16;;;;;;;10.48;5.83;;;;;;;16.24;78.58;101140.38;1746838;80;25765;-83
2022/06/18 04:33:45;;;;;;;11.35;6.30;;;;;;;16.28;78.47;101142.97;1758499;80;25764;-82
2022/06/18 04:36:38;;;;;;;11.22;6.62;;;;;;;16.33;78.61;101139.13;1758616;80;26498;-82
2022/06/18 04:39:24;;;;;;;10.08;7.08;;;;;;;16.39;78.72;101130.16;1712938;80;27714;-83
2022/06/18 04:41:58;;;;;;;12.07;6.55;;;;;;;16.47;78.80;101127.22;1750605;80;25751;-82
2022/06/18 04:44:26;;;;;;;11.18;6.37;;;;;;;16.55;78.78;101135.67;1774597;79;26979;-83
2022/06/18 04:46:54;;;;;;;7.37;5.75;;;;;;;16.61;78.69;101132.95;1759546;79;25949;-83
2022/06/18 04:49:21;;;;;;;10.40;6.25;;;;;;;16.68;78.71;101135.64;1766890;80;25911;-82
2022/06/18 04:51:47;;;;;;;12.15;6.72;;;;;;;16.74;78.64;101133.42;1755571;80;28237;-83
2022/06/18 04:54:16;;;;;;;7.10;6.00;;;;;;;16.80;78.71;101133.41;1771591;79;26400;-83
2022/06/18 04:56:42;;;;;;;7.67;5.62;;;;;;;16.85;78.60;101132.22;1786362;79;26374;-82
2022/06/18 04:59:08;;;;;;;8.78;6.15;;;;;;;16.92;78.72;101136.25;1776474;79;26333;-83
2022/06/18 05:01:35;;;;;;;11.70;7.55;;;;;;;16.98;78.67;101137.28;1771231;79;25907;-82
2022/06/18 05:04:08;;;;;;;9.33;6.08;;;;;;;17.05;78.75;101133.48;1773401;79;28385;-82
2022/06/18 05:06:40;;;;;;;9.18;5.67;;;;;;;17.12;78.85;101125.33;1744599;79;25738;-83
2022/06/18 05:09:11;;;;;;;8.40;5.75;;;;;;;17.18;78.65;101129.35;1765184;80;25807;-82
2022/06/18 05:11:40;;;;;;;6.97;5.45;;;;;;;17.27;78.58;101121.80;1743680;81;26559;-82
2022/06/18 05:14:11;;;;;;;8.05;5.10;;;;;;;17.38;78.34;101119.77;1755382;80;25838;-82
2022/06/18 05:16:43;;;;;;;8.60;5.15;;;;;;;17.47;78.08;101123.33;1745683;81;28281;-82
2022/06/18 05:19:25;;;;;;;11.53;4.67;;;;;;;17.58;77.64;101109.63;1787225;79;25908;-82
2022/06/18 05:21:53;;;;;;;6.65;5.22;;;;;;;17.68;77.48;101115.41;1774638;80;26374;-82
2022/06/18 05:24:20;;;;;;;9.48;5.10;;;;;;;17.81;77.55;101121.25;1765682;80;26704;-82
2022/06/18 05:26:50;;;;;;;5.87;5.17;;;;;;;17.95;77.42;101118.72;1764183;80;25892;-82
2022/06/18 05:29:17;;;;;;;9.48;5.10;;;;;;;18.08;77.42;101118.08;1771106;79;27163;-83
2022/06/18 05:31:44;;;;;;;7.55;5.50;;;;;;;18.24;77.29;101122.11;1770623;79;25915;-83
2022/06/18 05:34:11;;;;;;;8.98;5.72;;;;;;;18.36;76.67;101128.44;1751158;80;27123;-82
2022/06/18 05:36:39;;;;;;;7.70;5.25;;;;;;;18.43;76.34;101127.30;1767967;79;26014;-82
2022/06/18 05:39:08;;;;;;;8.05;4.87;;;;;;;18.54;76.03;101124.94;1751738;79;25880;-83
2022/06/18 05:41:36;;;;;;;9.20;5.60;;;;;;;18.68;76.05;101126.44;1726821;81;28336;-83
2022/06/18 05:44:03;;;;;;;7.92;5.17;;;;;;;18.82;74.80;101132.83;1754169;79;26464;-83
2022/06/18 05:46:30;;;;;;;5.85;4.60;;;;;;;18.92;74.25;101126.88;1755866;80;26204;-83
2022/06/18 05:48:56;;;;;;;8.98;5.35;;;;;;;18.93;73.42;101125.28;1765595;80;26558;-83
2022/06/18 05:51:23;;;;;;;8.63;5.17;;;;;;;18.93;73.24;101128.52;1762822;80;25750;-83
2022/06/18 05:53:50;;;;;;;7.10;5.00;;;;;;;18.96;73.31;101126.72;1753088;80;27553;-83
2022/06/18 05:56:20;;;;;;;8.00;5.45;;;;;;;19.00;73.24;101121.96;1776595;79;25798;-82
2022/06/18 05:59:11;;;;;;;11.15;5.45;;;;;;;19.09;73.02;101121.95;1769316;79;25702;-82
2022/06/18 06:01:39;;;;;;;9.23;5.30;;;;;;;19.18;72.48;101119.19;1776258;79;25961;-83
2022/06/18 06:04:06;;;;;;;9.05;5.12;;;;;;;19.28;72.56;101120.53;1790262;79;25951;-82
2022/06/18 06:06:32;;;;;;;10.95;5.47;;;;;;;19.38;72.60;101118.11;1758873;80;27433;-82
2022/06/18 06:08:59;;;;;;;10.88;5.33;;;;;;;19.51;72.60;101124.70;1768741;80;26118;-82
2022/06/18 06:11:32;;;;;;;8.53;5.45;;;;;;;19.65;71.68;101116.66;1783681;79;25823;-83
2022/06/18 06:14:04;;;;;;;7.65;4.83;;;;;;;19.77;71.35;101112.06;1760209;80;26537;-82
2022/06/18 06:16:31;;;;;;;5.47;4.65;;;;;;;19.90;71.11;101107.23;1769586;80;25999;-82
2022/06/18 06:19:04;;;;;;;7.20;5.53;;;;;;;20.03;71.54;101107.54;1775576;80;27448;-82
2022/06/18 06:21:30;;;;;;;8.90;5.25;;;;;;;20.14;70.50;101108.08;1768066;80;25862;-83
2022/06/18 06:23:57;;;;;;;8.55;4.72;;;;;;;20.23;69.86;101112.09;1757259;80;25738;-82
2022/06/18 06:26:30;;;;;;;6.00;4.78;;;;;;;20.32;69.20;101113.93;1760359;80;26995;-83
2022/06/18 06:28:56;;;;;;;7.22;4.85;;;;;;;20.42;69.51;101101.93;1751145;80;25300;-83
2022/06/18 06:31:22;;;;;;;7.97;4.12;;;;;;;20.56;70.01;101101.95;1755706;80;27438;-81
2022/06/18 06:33:49;;;;;;;6.85;4.62;;;;;;;20.72;68.16;101099.86;1760309;80;25880;-82
2022/06/18 06:36:17;;;;;;;7.95;4.80;;;;;;;20.78;68.38;101095.33;1787492;79;25903;-82
2022/06/18 06:38:43;;;;;;;6.55;4.28;;;;;;;20.86;67.32;101093.05;1740069;80;25903;-82
2022/06/18 06:41:17;;;;;;;6.42;3.98;;;;;;;20.98;67.81;101088.94;1752689;80;26410;-82
2022/06/18 06:43:44;;;;;;;5.97;3.92;;;;;;;21.10;67.47;101089.20;1769747;80;27545;-83
2022/06/18 06:46:13;;;;;;;5.42;3.65;;;;;;;21.21;67.06;101082.05;1787092;79;25866;-82
2022/06/18 06:48:40;;;;;;;10.68;3.83;;;;;;;21.33;66.97;101082.80;1751214;79;25766;-82
2022/06/18 06:51:17;;;;;;;6.92;3.50;;;;;;;21.47;65.48;101078.67;1754379;79;25770;-82
2022/06/18 06:53:43;;;;;;;7.30;3.30;;;;;;;21.56;65.36;101079.93;1769376;79;25299;-82
2022/06/18 06:58:57;;;;;;;5.22;3.50;;;;;;;21.82;64.13;101075.22;1769542;80;25313;-82
2022/06/18 07:01:25;;;;;;;6.97;3.33;;;;;;;21.87;63.70;101067.66;1758508;80;25714;-83
2022/06/18 07:03:51;;;;;;;4.47;2.92;;;;;;;21.95;63.86;101061.24;1769681;80;25878;-81
2022/06/18 07:06:18;;;;;;;6.78;3.22;;;;;;;22.06;63.75;101064.94;1777653;79;25779;-82
2022/06/18 07:08:44;;;;;;;3.85;3.30;;;;;;;22.12;63.35;101063.94;1778978;79;27448;-80
2022/06/18 07:11:13;;;;;;;4.72;3.00;;;;;;;22.19;63.49;101059.96;1781315;79;25778;-82
2022/06/18 07:13:40;;;;;;;7.83;3.27;;;;;;;22.29;63.38;101059.27;1761101;80;25697;-81
2022/06/18 07:16:10;;;;;;;5.00;2.77;;;;;;;22.39;63.35;101058.58;1763370;80;25775;-81
2022/06/18 07:18:37;;;;;;;5.23;2.80;;;;;;;22.49;62.39;101058.70;1759775;80;25950;-82
2022/06/18 07:21:09;;;;;;;6.62;2.80;;;;;;;22.53;61.17;101059.84;1778233;79;27432;-83
2022/06/18 07:23:35;;;;;;;6.60;2.85;;;;;;;22.55;60.48;101050.33;1755717;80;26221;-81
2022/06/18 07:26:02;;;;;;;5.92;3.05;;;;;;;22.61;60.33;101055.33;1796011;79;26457;-82
2022/06/18 07:28:29;;;;;;;3.17;2.25;;;;;;;22.64;60.26;101054.30;1787899;79;25941;-82
2022/06/18 07:30:56;;;;;;;7.58;2.80;;;;;;;22.70;60.20;101052.44;1788982;79;25947;-80
2022/06/18 07:33:26;;;;;;;4.60;2.70;;;;;;;22.74;60.95;101051.68;1795397;79;27431;-81
2022/06/18 07:35:53;;;;;;;5.20;2.57;;;;;;;22.82;60.41;101055.84;1795750;79;25594;-81
2022/06/18 07:38:20;;;;;;;3.12;2.47;;;;;;;22.83;60.43;101052.88;1761629;80;25973;-82
2022/06/18 07:40:52;;;;;;;4.80;2.77;;;;;;;22.81;59.86;101052.31;1755715;80;26569;-82
2022/06/18 07:43:32;;;;;;;3.52;2.50;;;;;;;22.80;59.59;101056.11;1770668;79;26338;-82
2022/06/18 07:45:59;;;;;;;4.00;2.75;;;;;;;22.80;59.77;101056.11;1761262;79;27633;-81
2022/06/18 07:48:25;;;;;;;5.37;3.00;;;;;;;22.81;59.61;101060.52;1781796;79;25844;-82
2022/06/18 07:50:51;;;;;;;2.98;2.40;;;;;;;22.84;59.63;101058.61;1772061;79;25823;-82
2022/06/18 07:53:21;;;;;;;4.92;2.77;;;;;;;22.89;59.55;101057.31;1729282;82;25783;-82
2022/06/18 07:55:49;;;;;;;3.58;2.40;;;;;;;22.93;58.60;101056.25;1735056;82;25745;-82
2022/06/18 07:58:16;;;;;;;3.35;2.50;;;;;;;22.97;58.15;101060.12;1728633;82;28252;-81
2022/06/18 08:00:43;;;;;;;3.70;2.42;;;;;;;22.98;59.01;101058.52;1759057;81;25951;-82
2022/06/18 08:03:13;;;;;;;5.70;2.75;;;;;;;22.96;58.29;101063.41;1799028;79;25346;-81
2022/06/18 08:05:39;;;;;;;4.97;2.60;;;;;;;22.95;58.60;101059.02;1766072;80;26081;-83
2022/06/18 08:08:06;;;;;;;4.08;2.70;;;;;;;22.96;58.40;101059.31;1776127;79;25807;-81
2022/06/18 08:10:37;;;;;;;7.05;2.67;;;;;;;22.95;58.50;101061.75;1756654;80;28307;-82
2022/06/18 08:13:04;;;;;;;9.70;2.60;;;;;;;22.94;58.11;101062.02;1773911;79;34942;-82
2022/06/18 08:15:32;;;;;;;4.55;2.58;;;;;;;22.93;57.85;101058.98;1759341;79;25992;-81
2022/06/18 08:17:58;;;;;;;3.80;2.40;;;;;;;22.91;57.76;101055.15;1757914;80;25998;-83
2022/06/18 08:20:27;;;;;;;6.67;3.22;;;;;;;22.89;57.86;101054.59;1751593;81;26144;-82
2022/06/18 08:22:57;;;;;;;4.20;2.85;;;;;;;22.87;57.13;101062.21;1744991;80;28112;-81
2022/06/18 08:25:27;;;;;;;3.58;2.15;;;;;;;22.87;57.47;101055.38;1771004;80;26576;-81
2022/06/18 08:27:55;;;;;;;3.30;2.67;;;;;;;22.87;57.65;101054.02;1770733;80;26129;-81
2022/06/18 08:30:22;;;;;;;5.20;2.80;;;;;;;22.89;57.88;101055.95;1771337;80;25774;-81
2022/06/18 08:32:48;;;;;;;3.17;2.65;;;;;;;22.89;58.05;101050.48;1770985;80;25794;-81
2022/06/18 08:35:14;;;;;;;5.55;2.40;;;;;;;22.92;57.82;101053.25;1771309;80;26910;-81
2022/06/18 08:37:43;;;;;;;3.75;2.75;;;;;;;22.96;57.72;101044.82;1751670;81;25796;-82
2022/06/18 08:40:36;;;;;;;4.40;2.90;;;;;;;23.00;57.79;101044.59;1771676;80;26580;-81
2022/06/18 08:43:41;;;;;;;4.20;2.52;;;;;;;23.07;58.58;101039.75;1733827;81;25786;-82
2022/06/18 08:46:22;;;;;;;4.05;2.83;;;;;;;23.18;58.57;101037.94;1756066;80;25824;-81
2022/06/18 08:49:30;;;;;;;5.72;2.62;;;;;;;23.23;57.26;101042.06;1755186;80;27620;-80
2022/06/18 08:52:37;;;;;;;3.25;2.80;;;;;;;23.28;57.93;101041.59;1740566;82;26479;-82
2022/06/18 08:55:23;;;;;;;8.65;2.98;;;;;;;23.33;58.08;101041.65;1751801;81;25844;-81
2022/06/18 08:58:07;;;;;;;7.95;2.92;;;;;;;23.43;58.82;101039.56;1744567;81;26246;-81
2022/06/18 09:01:01;;;;;;;6.65;2.75;;;;;;;23.53;58.72;101036.90;1750883;81;26455;-81
2022/06/18 09:03:58;;;;;;;3.15;2.52;;;;;;;23.58;58.45;101025.48;1738904;82;27442;-81
2022/06/18 09:06:59;;;;;;;2.95;2.10;;;;;;;23.65;57.77;101022.52;1739559;81;26013;-82
2022/06/18 09:09:56;;;;;;;4.20;2.35;;;;;;;23.70;57.65;101023.36;1739570;82;31588;-81
2022/06/18 09:12:43;;;;;;;8.63;2.90;;;;;;;23.75;57.51;101024.78;1751634;81;26550;-80
2022/06/18 09:15:23;;;;;;;3.40;2.37;;;;;;;23.83;56.80;101021.25;1737105;81;26099;-81
2022/06/18 09:18:01;;;;;;;4.37;2.40;;;;;;;23.88;57.14;101019.39;1738401;82;32589;-80
2022/06/18 09:20:43;;;;;;;6.67;2.40;;;;;;;23.94;56.18;101011.48;1751695;81;25247;-81
2022/06/18 09:23:15;;;;;;;3.20;2.30;;;;;;;24.02;56.54;101012.34;1751726;81;26509;-81
2022/06/18 09:25:47;;;;;;;4.97;2.22;;;;;;;24.17;57.20;101008.36;1750313;81;25774;-81
2022/06/18 09:28:35;;;;;;;5.25;2.33;;;;;;;24.33;56.32;101002.41;1751956;81;25970;-81
2022/06/18 09:31:16;;;;;;;4.40;2.50;;;;;;;24.49;56.10;100998.09;1727492;80;27475;-80
2022/06/18 09:34:00;;;;;;;4.33;2.40;;;;;;;24.64;52.75;100989.63;1756641;80;25809;-81
2022/06/18 09:36:43;;;;;;;2.60;2.05;;;;;;;24.76;54.60;100978.76;1767087;80;25865;-80
2022/06/18 09:39:27;;;;;;;6.25;2.10;;;;;;;24.88;54.14;100975.20;1772825;79;25995;-81
2022/06/18 09:42:02;;;;;;;2.45;1.80;;;;;;;24.98;53.43;100973.84;1760985;80;25742;-81
2022/06/18 09:44:45;;;;;;;3.92;2.20;;;;;;;25.10;54.27;100970.84;1776548;79;27533;-82
2022/06/18 09:47:41;;;;;;;2.22;1.52;;;;;;;25.24;52.56;100960.42;1751525;81;25794;-81
2022/06/18 09:50:18;;;;;;;5.03;1.65;;;;;;;25.37;52.73;100960.95;1799224;79;25887;-81
2022/06/18 09:52:50;;;;;;;3.65;1.67;;;;;;;25.47;51.64;100955.52;1770005;80;27870;-81
2022/06/18 09:55:22;;;;;;;1.85;1.70;;;;;;;25.52;51.37;100948.09;1782629;80;25782;-81
2022/06/18 09:57:53;;;;;;;3.58;1.50;;;;;;;25.57;50.80;100948.09;1782566;80;28304;-80
2022/06/18 10:00:22;;;;;;;;;;;;;;;25.68;51.14;100943.41;1785625;80;25969;-80
2022/06/18 10:03:02;;;;;;;3.10;1.47;;;;;;;25.77;49.66;100936.25;1782741;80;26166;-81
2022/06/18 10:08:25;;;;;;;5.58;3.05;;;;;;;25.86;49.79;100935.92;1769620;80;25914;-81
2022/06/18 10:11:07;;;;;;;3.77;2.30;;;;;;;25.95;48.68;100928.77;1771074;80;28315;-81
2022/06/18 10:13:28;;;;;;;5.30;1.72;;;;;;;26.00;48.01;100924.06;1780514;80;25784;-81
2022/06/18 10:16:00;;;;;;;4.62;1.70;;;;;;;26.08;48.21;100918.59;1782520;80;25758;-81
2022/06/18 10:18:38;;;;;;;2.10;1.90;;;;;;;26.16;48.08;100927.61;1761489;80;26412;-81
2022/06/18 10:21:17;;;;;;;2.80;1.70;;;;;;;26.19;48.11;100920.20;1770585;79;25762;-81
2022/06/18 10:23:52;;;;;;;4.12;1.85;;;;;;;26.26;48.23;100914.39;1779521;79;26890;-81
2022/06/18 10:26:52;;;;;;;3.62;2.12;;;;;;;26.26;47.43;100912.45;1766208;79;25807;-82
2022/06/18 10:29:34;;;;;;;;;;;;;;;26.24;46.88;100915.23;1789533;79;25876;-81
2022/06/18 10:32:26;;;;;;;4.40;1.90;;;;;;;26.20;47.61;100903.97;1761066;80;25846;-81
2022/06/18 10:35:10;;;;;;;3.20;1.90;;;;;;;26.19;47.65;100903.72;1758072;80;25831;-81
2022/06/18 10:38:02;;;;;;;3.22;2.05;;;;;;;26.23;48.59;100895.72;1781229;79;27475;-80
2022/06/18 10:40:52;;;;;;;3.85;1.75;;;;;;;26.27;47.72;100893.50;1772844;79;26038;-80
2022/06/18 10:43:41;;;;;;;6.10;1.92;;;;;;;26.29;47.73;100891.30;1756906;80;25874;-81
2022/06/18 10:46:14;;;;;;;3.25;1.70;;;;;;;26.30;48.41;100885.26;1742672;81;26559;-80
2022/06/18 10:48:49;;;;;;;2.22;2.00;;;;;;;26.28;47.37;100884.72;1746225;80;26045;-82
2022/06/18 10:51:20;;;;;;;3.72;2.25;;;;;;;26.24;47.27;100881.70;1749755;80;27477;-80
2022/06/18 10:53:58;;;;;;;5.45;2.08;;;;;;;26.25;46.82;100883.36;1752058;80;26248;-81
2022/06/18 10:56:36;;;;;;;3.87;1.62;;;;;;;26.29;47.32;100884.97;1751338;80;25486;-80
2022/06/18 10:59:03;;;;;;;2.20;1.60;;;;;;;26.36;46.84;100882.20;1763714;80;25793;-81
2022/06/18 11:01:39;;;;;;;5.42;1.85;;;;;;;26.36;46.23;100875.33;1758273;80;25948;-82
2022/06/18 11:04:28;;;;;;;2.30;1.82;;;;;;;26.38;45.98;100879.98;1762460;79;27458;-81
2022/06/18 11:06:59;;;;;;;7.62;2.00;;;;;;;26.38;45.43;100880.53;1790409;79;25523;-81
2022/06/18 11:09:34;;;;;;;8.63;1.90;;;;;;;26.38;44.95;100878.61;1761112;80;26107;-81
2022/06/18 11:12:06;;;;;;;5.80;2.00;;;;;;;26.48;45.13;100878.53;1767326;80;26423;-81
2022/06/18 11:14:42;;;;;;;2.22;1.70;;;;;;;26.63;46.91;100879.80;1759415;79;25939;-80
2022/06/18 11:17:31;;;;;;;5.25;1.70;;;;;;;26.74;44.14;100874.54;1765164;80;27427;-80
2022/06/18 11:20:23;;;;;;;3.10;1.80;;;;;;;26.84;42.83;100872.83;1764525;79;25281;-81
2022/06/18 11:23:00;;;;;;;3.67;1.70;;;;;;;27.00;44.88;100866.07;1753121;80;26014;-80
2022/06/18 11:25:41;;;;;;;2.45;1.72;;;;;;;27.15;43.67;100867.30;1756648;80;25771;-81
2022/06/18 11:28:20;;;;;;;3.92;1.80;;;;;;;27.26;44.15;100872.43;1769030;80;25839;-81
2022/06/18 11:30:49;;;;;;;2.05;1.67;;;;;;;27.36;42.72;100864.09;1769557;80;27438;-81
2022/06/18 11:33:35;;;;;;;3.87;2.08;;;;;;;27.32;40.94;100873.19;1767190;80;26447;-80
2022/06/18 11:36:15;;;;;;;2.20;1.47;;;;;;;27.18;42.30;100870.28;1753342;79;25789;-80
2022/06/18 11:38:53;;;;;;;2.25;1.80;;;;;;;27.08;42.76;100866.27;1762925;80;25764;-81
2022/06/18 11:41:40;;;;;;;2.45;1.65;;;;;;;26.93;42.62;100851.28;1769262;80;25334;-80
2022/06/18 11:44:35;;;;;;;4.28;1.67;;;;;;;26.78;42.63;100845.09;1750432;80;27427;-80
2022/06/18 11:47:16;;;;;;;2.45;1.57;;;;;;;26.55;42.73;100850.20;1752411;79;26065;-81
2022/06/18 11:49:56;;;;;;;2.35;1.62;;;;;;;26.36;42.46;100840.17;1770314;79;25289;-81
2022/06/18 11:52:39;;;;;;;5.30;1.70;;;;;;;26.20;42.84;100831.74;1754096;80;25769;-80
2022/06/18 11:55:17;;;;;;;4.20;2.02;;;;;;;26.06;43.37;100827.42;1764762;80;25797;-81
2022/06/18 11:58:05;;;;;;;4.00;2.08;;;;;;;25.95;42.80;100825.28;1761995;79;27486;-80
2022/06/18 12:00:43;;;;;;;3.62;1.80;;;;;;;25.94;43.34;100817.31;1770994;79;25924;-82
2022/06/18 12:03:30;;;;;;;5.87;1.92;;;;;;;26.13;43.60;100808.75;1770834;79;25700;-81